Terminal Aerodrome Forecast
Issued by NWS Topeka, KS

Home | Current Version | Previous Version | Text Only | Print | Product List | Glossary Off
Versions: 1 2 3 4 5 6 7 8 9 10 11 12 13 14 15 16 17 18 19

972
FTUS43 KTOP 231120
TAFTOP
TAF
KTOP 231120Z 2312/2412 15010KT P6SM BKN120 WS010/19040KT
     FM231300 15011KT P6SM SCT025 BKN100
     FM231500 16011KT 6SM -TSRA BKN025CB
     FM231900 15010KT P6SM SCT022
     FM240800 17007KT P6SM VCTS BKN025CB=

USA.gov is the U.S. government's official web portal to all federal, state and local government web resources and services.